createdAt,value
2024-05-09T00:00:42.163Z,8.40
2024-05-09T00:03:10.768Z,8.30
2024-05-09T00:05:45.176Z,8.40
2024-05-09T00:08:12.632Z,8.40
2024-05-09T00:10:40.739Z,8.30
2024-05-09T00:13:09.615Z,8.30
2024-05-09T00:15:37.297Z,8.30
2024-05-09T00:18:06.652Z,8.30
2024-05-09T00:20:38.908Z,8.20
2024-05-09T00:23:13.568Z,8.20
2024-05-09T00:25:43.203Z,8.20
2024-05-09T00:28:11.852Z,8.20
2024-05-09T00:30:38.724Z,8.20
2024-05-09T00:33:07.138Z,8.20
2024-05-09T00:35:35.558Z,8.10
2024-05-09T00:38:02.728Z,8.10
2024-05-09T00:40:40.334Z,8.10
2024-05-09T00:43:12.554Z,8.10
2024-05-09T00:45:44.539Z,8.00
2024-05-09T00:48:15.178Z,8.00
2024-05-09T00:50:46.523Z,8.00
2024-05-09T00:53:16.318Z,7.90
2024-05-09T00:55:43.997Z,7.90
2024-05-09T00:58:16.352Z,7.90
2024-05-09T01:00:43.869Z,7.90
2024-05-09T01:03:13.689Z,7.90
2024-05-09T01:05:42.657Z,7.90
2024-05-09T01:08:11.072Z,7.90
2024-05-09T01:10:42.796Z,8.00
2024-05-09T01:13:13.835Z,8.00
2024-05-09T01:15:43.086Z,8.00
2024-05-09T01:18:12.453Z,8.00
2024-05-09T01:20:43.407Z,7.90
2024-05-09T01:23:14.794Z,7.90
2024-05-09T01:25:44.341Z,7.80
2024-05-09T01:28:12.868Z,7.70
2024-05-09T01:30:41.618Z,7.70
2024-05-09T01:33:10.495Z,7.70
2024-05-09T01:35:40.897Z,7.70
2024-05-09T01:38:09.667Z,7.60
2024-05-09T01:40:39.292Z,7.60
2024-05-09T01:43:12.450Z,7.60
2024-05-09T01:45:41.094Z,7.50
2024-05-09T01:48:10.746Z,7.60
2024-05-09T01:50:41.423Z,7.50
2024-05-09T01:53:14.852Z,7.50
2024-05-09T01:55:43.435Z,7.50
2024-05-09T01:58:10.541Z,7.50
2024-05-09T02:00:42.088Z,7.50
2024-05-09T02:03:14.527Z,7.50
2024-05-09T02:05:45.472Z,7.50
2024-05-09T02:08:15.658Z,7.50
2024-05-09T02:10:44.456Z,7.40
2024-05-09T02:13:13.835Z,7.40
2024-05-09T02:15:45.519Z,7.40
2024-05-09T02:18:13.003Z,7.30
2024-05-09T02:20:41.438Z,7.30
2024-05-09T02:23:10.097Z,7.40
2024-05-09T02:25:37.417Z,7.30
2024-05-09T02:28:04.760Z,7.30
2024-05-09T02:30:39.291Z,7.30
2024-05-09T02:33:10.804Z,7.30
2024-05-09T02:35:39.873Z,7.30
2024-05-09T02:38:07.144Z,7.30
2024-05-09T02:40:37.918Z,7.30
2024-05-09T02:43:12.691Z,7.30
2024-05-09T02:45:40.650Z,7.20
2024-05-09T02:48:11.217Z,7.30
2024-05-09T02:50:40.573Z,7.30
2024-05-09T02:53:08.879Z,7.30
2024-05-09T02:55:36.937Z,7.30
2024-05-09T02:58:04.054Z,7.20
2024-05-09T03:00:38.567Z,7.30
2024-05-09T03:03:10.461Z,7.20
2024-05-09T03:05:40.053Z,7.20
2024-05-09T03:08:09.219Z,7.20
2024-05-09T03:10:38.395Z,7.20
2024-05-09T03:13:15.283Z,7.10
2024-05-09T03:15:45.096Z,7.10
2024-05-09T03:18:14.820Z,7.10
2024-05-09T03:20:43.826Z,7.10
2024-05-09T03:23:11.123Z,7.10
2024-05-09T03:25:38.953Z,7.10
2024-05-09T03:28:07.767Z,7.10
2024-05-09T03:30:41.092Z,7.10
2024-05-09T03:33:12.197Z,7.10
2024-05-09T03:35:40.308Z,7.10
2024-05-09T03:38:07.558Z,7.10
2024-05-09T03:40:34.513Z,7.10
2024-05-09T03:43:01.383Z,7.00
2024-05-09T03:45:28.218Z,7.00
2024-05-09T03:47:56.039Z,7.00
2024-05-09T03:50:30.036Z,7.00
2024-05-09T03:53:01.931Z,7.00
2024-05-09T03:55:29.109Z,7.00
2024-05-09T03:57:55.950Z,7.00
2024-05-09T04:00:31.163Z,6.90
2024-05-09T04:03:07.002Z,6.90
2024-05-09T04:05:36.602Z,6.90
2024-05-09T04:08:03.816Z,6.90
2024-05-09T04:10:33.794Z,6.90
2024-05-09T04:13:04.347Z,6.90
2024-05-09T04:15:33.463Z,6.90
2024-05-09T04:18:01.336Z,6.90
2024-05-09T04:20:36.719Z,7.00
2024-05-09T04:23:08.658Z,7.00
2024-05-09T04:25:37.958Z,7.10
2024-05-09T04:28:05.523Z,7.10
2024-05-09T04:30:38.631Z,7.10
2024-05-09T04:33:11.986Z,7.20
2024-05-09T04:35:44.460Z,7.20
2024-05-09T04:38:16.653Z,7.20
2024-05-09T04:40:44.618Z,7.20
2024-05-09T04:43:19.356Z,7.30
2024-05-09T04:45:46.382Z,7.30
2024-05-09T04:48:13.652Z,7.40
2024-05-09T04:50:43.552Z,7.50
2024-05-09T04:53:16.671Z,7.50
2024-05-09T04:55:46.633Z,7.50
2024-05-09T04:58:13.575Z,7.50
2024-05-09T05:00:41.540Z,7.50
2024-05-09T05:03:13.871Z,7.60
2024-05-09T05:05:44.282Z,7.70
2024-05-09T05:08:13.708Z,7.80
2024-05-09T05:10:47.068Z,7.80
2024-05-09T05:13:22.781Z,7.90
2024-05-09T05:15:55.590Z,8.00
2024-05-09T05:18:24.434Z,8.10
2024-05-09T05:20:51.874Z,8.20
2024-05-09T05:23:21.172Z,8.30
2024-05-09T05:25:50.076Z,8.40
2024-05-09T05:28:17.588Z,8.50
2024-05-09T05:30:45.259Z,8.60
2024-05-09T05:33:16.244Z,8.70
2024-05-09T05:35:43.666Z,8.80
2024-05-09T05:38:11.388Z,8.90
2024-05-09T05:40:41.356Z,9.00
2024-05-09T05:43:16.318Z,9.20
2024-05-09T05:45:43.348Z,9.30
2024-05-09T05:48:10.503Z,9.50
2024-05-09T05:50:39.022Z,9.70
2024-05-09T05:53:07.901Z,9.90
2024-05-09T05:55:39.383Z,10.00
2024-05-09T05:58:10.475Z,10.30
2024-05-09T06:00:39.550Z,11.00
2024-05-09T06:03:09.640Z,13.10
2024-05-09T06:05:39.467Z,15.40
2024-05-09T06:08:07.132Z,17.40
2024-05-09T06:10:39.004Z,19.00
2024-05-09T06:13:12.266Z,20.20
2024-05-09T06:15:41.059Z,21.30
2024-05-09T06:18:14.655Z,22.20
2024-05-09T06:20:43.613Z,22.70
2024-05-09T06:23:14.275Z,22.90
2024-05-09T06:25:42.205Z,23.10
2024-05-09T06:28:09.659Z,23.70
2024-05-09T06:30:40.401Z,24.10
2024-05-09T06:33:11.918Z,24.90
2024-05-09T06:35:40.984Z,24.70
2024-05-09T06:38:11.676Z,24.60
2024-05-09T06:40:42.553Z,24.80
2024-05-09T06:43:16.907Z,25.10
2024-05-09T06:45:47.629Z,24.60
2024-05-09T06:50:47.897Z,25.60
2024-05-09T06:53:15.950Z,26.20
2024-05-09T06:55:43.311Z,25.90
2024-05-09T06:58:10.305Z,25.60
2024-05-09T07:00:40.076Z,25.10
2024-05-09T07:03:16.830Z,25.90
2024-05-09T07:05:46.813Z,25.40
2024-05-09T07:08:15.039Z,26.10
2024-05-09T07:10:42.207Z,26.40
2024-05-09T07:15:42.157Z,27.60
2024-05-09T07:18:15.352Z,26.60
2024-05-09T07:20:45.895Z,26.60
2024-05-09T07:23:15.358Z,26.40
2024-05-09T07:25:42.895Z,26.50
2024-05-09T07:28:15.800Z,26.20
2024-05-09T07:30:43.596Z,26.30
2024-05-09T07:33:20.261Z,27.00
2024-05-09T07:35:50.603Z,27.90
2024-05-09T07:38:17.574Z,28.40
2024-05-09T07:40:48.516Z,28.20
2024-05-09T07:43:16.036Z,28.30
2024-05-09T07:45:52.078Z,28.20
2024-05-09T07:52:38.760Z,28.50
2024-05-09T07:53:49.709Z,28.40
2024-05-09T07:56:22.495Z,28.20
2024-05-09T07:58:53.155Z,28.50
2024-05-09T08:01:20.917Z,27.80
2024-05-09T08:03:49.520Z,27.80
2024-05-09T08:06:16.630Z,28.00
2024-05-09T08:08:45.400Z,27.80
2024-05-09T08:11:12.556Z,28.60
2024-05-09T08:13:40.800Z,29.40
2024-05-09T08:16:09.466Z,29.90
2024-05-09T08:21:04.193Z,30.30
2024-05-09T08:23:31.398Z,30.50
2024-05-09T08:28:26.942Z,30.20
2024-05-09T08:30:53.966Z,30.40
2024-05-09T08:33:21.044Z,30.40
2024-05-09T08:35:49.423Z,30.20
2024-05-09T08:38:16.780Z,29.50
2024-05-09T08:40:43.951Z,29.30
2024-05-09T08:43:16.354Z,28.60
2024-05-09T08:45:44.843Z,28.60
2024-05-09T08:48:16.086Z,28.80
2024-05-09T08:50:45.383Z,28.80
2024-05-09T08:53:15.052Z,28.80
2024-05-09T08:55:45.855Z,28.80
2024-05-09T08:58:16.509Z,28.30
2024-05-09T09:00:46.167Z,28.10
2024-05-09T09:03:22.621Z,28.50
2024-05-09T09:06:07.191Z,28.30
2024-05-09T09:08:34.181Z,28.30
2024-05-09T09:11:01.160Z,28.10
2024-05-09T09:13:28.226Z,28.80
2024-05-09T09:15:59.205Z,29.40
2024-05-09T09:18:28.264Z,30.00
2024-05-09T09:20:55.992Z,29.60
2024-05-09T09:23:23.114Z,29.60
2024-05-09T09:25:50.515Z,29.20
2024-05-09T09:28:17.688Z,28.90
2024-05-09T09:30:52.405Z,29.00
2024-05-09T09:33:20.001Z,28.50
2024-05-09T09:35:46.900Z,27.50
2024-05-09T09:40:49.703Z,26.50
2024-05-09T09:43:22.409Z,25.80
2024-05-09T09:45:52.901Z,25.10
2024-05-09T09:48:23.526Z,25.00
2024-05-09T09:50:52.961Z,24.80
2024-05-09T09:55:52.895Z,24.10
2024-05-09T09:58:20.188Z,24.40
2024-05-09T10:00:47.403Z,24.50
2024-05-09T10:03:19.785Z,25.00
2024-05-09T10:08:17.631Z,23.70
2024-05-09T10:10:48.096Z,23.50
2024-05-09T10:13:15.944Z,23.50
2024-05-09T10:15:53.969Z,23.60
2024-05-09T10:18:27.107Z,23.80
2024-05-09T10:20:56.355Z,23.90
2024-05-09T10:23:34.438Z,23.50
2024-05-09T10:26:05.139Z,23.40
2024-05-09T10:28:35.368Z,23.30
2024-05-09T10:31:13.932Z,23.10
2024-05-09T10:36:22.953Z,22.70
2024-05-09T10:38:53.252Z,22.50
2024-05-09T10:41:22.184Z,22.10
2024-05-09T10:43:51.869Z,21.90
2024-05-09T10:46:19.519Z,21.80
2024-05-09T10:48:47.849Z,21.40
2024-05-09T10:51:16.238Z,20.90
2024-05-09T10:53:47.962Z,20.80
2024-05-09T10:56:18.027Z,20.90
2024-05-09T10:58:45.034Z,21.00
2024-05-09T11:01:14.044Z,21.10
2024-05-09T11:03:50.919Z,20.90
2024-05-09T11:06:18.482Z,20.70
2024-05-09T11:08:46.840Z,20.60
2024-05-09T11:11:15.118Z,20.60
2024-05-09T11:13:43.183Z,20.50
2024-05-09T11:16:20.627Z,20.20
2024-05-09T11:18:59.196Z,20.10
2024-05-09T11:21:26.696Z,20.20
2024-05-09T11:23:53.855Z,20.20
2024-05-09T11:26:22.056Z,20.30
2024-05-09T11:28:50.363Z,20.30
2024-05-09T11:31:17.719Z,20.30
2024-05-09T11:33:48.139Z,20.40
2024-05-09T11:36:15.631Z,20.60
2024-05-09T11:38:42.975Z,20.80
2024-05-09T11:41:20.743Z,20.80
2024-05-09T11:43:48.733Z,20.80
2024-05-09T11:46:15.861Z,20.90
2024-05-09T11:48:42.995Z,20.80
2024-05-09T11:51:09.960Z,20.90
2024-05-09T11:53:36.820Z,21.00
2024-05-09T11:56:04.213Z,21.00
2024-05-09T11:58:34.497Z,20.80
2024-05-09T12:01:02.045Z,20.70
2024-05-09T12:03:29.522Z,20.60
2024-05-09T12:05:56.894Z,20.50
2024-05-09T12:08:25.702Z,20.20
2024-05-09T12:10:52.870Z,19.90
2024-05-09T12:13:22.326Z,19.90
2024-05-09T12:15:49.346Z,19.90
2024-05-09T12:18:17.224Z,19.90
2024-05-09T12:20:44.523Z,20.00
2024-05-09T12:23:14.493Z,20.00
2024-05-09T12:25:43.818Z,20.00
2024-05-09T12:28:10.823Z,19.90
2024-05-09T12:30:40.198Z,19.90
2024-05-09T12:33:13.793Z,20.00
2024-05-09T12:35:44.273Z,20.10
2024-05-09T12:38:14.580Z,20.00
2024-05-09T12:40:43.220Z,20.00
2024-05-09T12:43:11.373Z,20.00
2024-05-09T12:45:39.911Z,20.00
2024-05-09T12:48:12.066Z,19.80
2024-05-09T12:50:40.728Z,19.80
2024-05-09T12:53:07.839Z,20.00
2024-05-09T12:55:43.851Z,20.10
2024-05-09T12:58:19.216Z,20.30
2024-05-09T13:00:46.958Z,20.30
2024-05-09T13:03:14.432Z,20.30
2024-05-09T13:05:44.618Z,20.30
2024-05-09T13:08:17.702Z,20.10
2024-05-09T13:10:44.831Z,20.10
2024-05-09T13:13:12.350Z,20.00
2024-05-09T13:15:39.579Z,20.10
2024-05-09T13:18:07.084Z,20.00
2024-05-09T13:20:36.502Z,20.00
2024-05-09T13:23:07.910Z,20.00
2024-05-09T13:25:37.113Z,20.00
2024-05-09T13:28:06.313Z,20.10
2024-05-09T13:30:39.784Z,20.00
2024-05-09T13:33:11.510Z,20.10
2024-05-09T13:35:44.062Z,20.20
2024-05-09T13:38:14.422Z,20.20
2024-05-09T13:40:41.769Z,20.20
2024-05-09T13:43:08.733Z,20.10
2024-05-09T13:45:36.066Z,20.00
2024-05-09T13:48:04.071Z,20.00
2024-05-09T13:50:35.164Z,20.00
2024-05-09T13:53:06.575Z,20.00
2024-05-09T13:55:37.701Z,20.10
2024-05-09T13:58:05.522Z,20.10
2024-05-09T14:00:44.158Z,20.10
2024-05-09T14:03:17.012Z,20.10
2024-05-09T14:05:45.993Z,20.10
2024-05-09T14:08:15.392Z,20.10
2024-05-09T14:10:47.063Z,20.20
2024-05-09T14:13:14.621Z,20.40
2024-05-09T14:15:41.600Z,20.50
2024-05-09T14:18:12.579Z,20.60
2024-05-09T14:20:41.744Z,20.60
2024-05-09T14:23:10.982Z,20.60
2024-05-09T14:25:42.194Z,20.40
2024-05-09T14:28:10.762Z,20.40
2024-05-09T14:30:38.890Z,20.40
2024-05-09T14:33:07.834Z,20.50
2024-05-09T14:35:40.016Z,20.60
2024-05-09T14:38:08.701Z,20.70
2024-05-09T14:40:41.940Z,20.80
2024-05-09T14:43:12.614Z,20.60
2024-05-09T14:45:43.777Z,20.60
2024-05-09T14:48:14.106Z,20.50
2024-05-09T14:50:41.890Z,20.50
2024-05-09T14:53:10.703Z,20.40
2024-05-09T14:55:40.168Z,20.30
2024-05-09T14:58:09.936Z,20.30
2024-05-09T15:00:46.098Z,20.10
2024-05-09T15:03:21.663Z,20.10
2024-05-09T15:05:49.679Z,20.00
2024-05-09T15:08:18.342Z,20.00
2024-05-09T15:10:45.990Z,20.00
2024-05-09T15:13:16.594Z,20.10
2024-05-09T15:15:45.310Z,20.20
2024-05-09T15:18:14.021Z,20.30
2024-05-09T15:20:41.437Z,20.30
2024-05-09T15:23:08.377Z,20.40
2024-05-09T15:25:36.709Z,20.50
2024-05-09T15:28:09.766Z,20.40
2024-05-09T15:30:37.369Z,20.40
2024-05-09T15:33:07.172Z,20.40
2024-05-09T15:35:35.397Z,20.50
2024-05-09T15:38:03.797Z,20.40
2024-05-09T15:40:38.265Z,20.40
2024-05-09T15:43:08.874Z,20.40
2024-05-09T15:45:37.185Z,20.40
2024-05-09T15:48:05.592Z,20.40
2024-05-09T15:50:38.829Z,20.30
2024-05-09T15:53:10.303Z,20.30
2024-05-09T15:55:37.974Z,20.10
2024-05-09T15:58:06.023Z,20.00
2024-05-09T16:00:38.652Z,20.00
2024-05-09T16:03:13.993Z,19.90
2024-05-09T16:05:44.740Z,19.80
2024-05-09T16:08:14.353Z,19.70
2024-05-09T16:10:47.721Z,19.70
2024-05-09T16:13:16.302Z,19.80
2024-05-09T16:15:44.198Z,19.90
2024-05-09T16:18:12.234Z,20.00
2024-05-09T16:20:41.646Z,20.00
2024-05-09T16:23:10.715Z,20.20
2024-05-09T16:25:37.791Z,20.20
2024-05-09T16:28:08.910Z,20.10
2024-05-09T16:30:40.702Z,20.10
2024-05-09T16:33:11.650Z,20.20
2024-05-09T16:35:39.404Z,20.20
2024-05-09T16:38:06.808Z,20.10
2024-05-09T16:40:38.827Z,20.10
2024-05-09T16:43:12.934Z,20.00
2024-05-09T16:45:44.575Z,19.90
2024-05-09T16:48:12.860Z,19.90
2024-05-09T16:50:41.735Z,19.80
2024-05-09T16:53:10.623Z,19.70
2024-05-09T16:55:38.312Z,19.70
2024-05-09T16:58:07.980Z,19.60
2024-05-09T17:00:40.994Z,19.60
2024-05-09T17:03:13.183Z,19.60
2024-05-09T17:05:42.408Z,19.60
2024-05-09T17:08:09.686Z,19.60
2024-05-09T17:10:37.001Z,19.60
2024-05-09T17:13:06.555Z,19.50
2024-05-09T17:15:35.939Z,19.50
2024-05-09T17:18:04.555Z,19.40
2024-05-09T17:20:35.171Z,19.40
2024-05-09T17:23:12.172Z,19.40
2024-05-09T17:25:40.190Z,19.30
2024-05-09T17:28:08.614Z,19.20
2024-05-09T17:30:38.480Z,19.20
2024-05-09T17:33:09.329Z,19.20
2024-05-09T17:35:37.434Z,19.10
2024-05-09T17:38:06.149Z,19.10
2024-05-09T17:40:36.130Z,19.00
2024-05-09T17:43:06.417Z,18.90
2024-05-09T17:45:36.637Z,18.90
2024-05-09T17:48:03.834Z,18.80
2024-05-09T17:50:35.343Z,18.80
2024-05-09T17:53:05.713Z,18.70
2024-05-09T17:55:33.031Z,18.70
2024-05-09T17:58:00.318Z,18.60
2024-05-09T18:00:37.035Z,18.60
2024-05-09T18:03:08.661Z,18.50
2024-05-09T18:05:37.082Z,18.40
2024-05-09T18:08:06.401Z,18.20
2024-05-09T18:10:38.166Z,18.10
2024-05-09T18:13:10.619Z,17.90
2024-05-09T18:15:40.405Z,17.70
2024-05-09T18:18:08.756Z,17.60
2024-05-09T18:20:42.651Z,17.40
2024-05-09T18:23:15.625Z,17.20
2024-05-09T18:25:43.904Z,17.00
2024-05-09T18:28:11.016Z,16.80
2024-05-09T18:30:40.234Z,16.70
2024-05-09T18:33:10.886Z,16.50
2024-05-09T18:35:38.242Z,16.40
2024-05-09T18:38:05.782Z,16.20
2024-05-09T18:40:36.208Z,16.10
2024-05-09T18:43:08.206Z,15.90
2024-05-09T18:45:39.050Z,15.80
2024-05-09T18:48:09.815Z,15.70
2024-05-09T18:50:42.525Z,15.60
2024-05-09T18:53:12.241Z,15.50
2024-05-09T18:55:41.556Z,15.40
2024-05-09T18:58:08.600Z,15.30
2024-05-09T19:00:38.919Z,15.20
2024-05-09T19:03:10.541Z,15.10
2024-05-09T19:05:40.546Z,15.00
2024-05-09T19:08:08.372Z,14.90
2024-05-09T19:10:38.716Z,14.80
2024-05-09T19:13:11.735Z,14.70
2024-05-09T19:15:41.169Z,14.60
2024-05-09T19:18:11.493Z,14.50
2024-05-09T19:20:39.046Z,14.40
2024-05-09T19:23:07.047Z,14.30
2024-05-09T19:25:35.403Z,14.30
2024-05-09T19:28:03.537Z,14.20
2024-05-09T19:30:38.474Z,14.10
2024-05-09T19:33:12.652Z,14.10
2024-05-09T19:35:40.686Z,14.00
2024-05-09T19:38:07.639Z,13.90
2024-05-09T19:40:35.715Z,13.90
2024-05-09T19:43:06.006Z,13.80
2024-05-09T19:45:35.070Z,13.80
2024-05-09T19:48:06.434Z,13.70
2024-05-09T19:50:41.784Z,13.70
2024-05-09T19:53:12.395Z,13.60
2024-05-09T19:55:43.249Z,13.50
2024-05-09T19:58:10.802Z,13.50
2024-05-09T20:00:40.920Z,13.40
2024-05-09T20:03:11.634Z,13.40
2024-05-09T20:05:39.420Z,13.30
2024-05-09T20:08:07.447Z,13.30
2024-05-09T20:10:35.888Z,13.20
2024-05-09T20:13:08.254Z,13.20
2024-05-09T20:15:37.620Z,13.10
2024-05-09T20:18:05.641Z,13.00
2024-05-09T20:20:39.223Z,13.00
2024-05-09T20:23:13.252Z,12.90
2024-05-09T20:25:41.368Z,12.90
2024-05-09T20:28:08.348Z,12.80
2024-05-09T20:30:36.439Z,12.80
2024-05-09T20:33:05.480Z,12.70
2024-05-09T20:35:33.853Z,12.70
2024-05-09T20:38:01.345Z,12.60
2024-05-09T20:40:34.161Z,12.60
2024-05-09T20:43:05.074Z,12.60
2024-05-09T20:45:32.241Z,12.60
2024-05-09T20:47:59.389Z,12.60
2024-05-09T20:50:36.321Z,12.50
2024-05-09T20:53:09.496Z,12.50
2024-05-09T20:55:36.855Z,12.50
2024-05-09T20:58:03.918Z,12.40
2024-05-09T21:00:39.476Z,12.40
2024-05-09T21:03:10.293Z,12.40
2024-05-09T21:05:38.661Z,12.30
2024-05-09T21:08:06.564Z,12.20
2024-05-09T21:10:36.258Z,12.20
2024-05-09T21:13:04.205Z,12.20
2024-05-09T21:15:31.939Z,12.10
2024-05-09T21:17:59.343Z,12.10
2024-05-09T21:20:31.405Z,12.00
2024-05-09T21:23:00.772Z,12.00
2024-05-09T21:25:27.874Z,12.00
2024-05-09T21:27:54.926Z,12.00
2024-05-09T21:30:32.368Z,11.90
2024-05-09T21:33:13.239Z,11.90
2024-05-09T21:35:44.402Z,11.80
2024-05-09T21:38:13.448Z,11.80
2024-05-09T21:40:40.556Z,11.80
2024-05-09T21:43:08.144Z,11.70
2024-05-09T21:45:35.941Z,11.70
2024-05-09T21:48:07.122Z,11.70
2024-05-09T21:50:39.940Z,11.60
2024-05-09T21:53:10.385Z,11.60
2024-05-09T21:55:38.918Z,11.60
2024-05-09T21:58:06.742Z,11.60
2024-05-09T22:00:39.171Z,11.50
2024-05-09T22:03:10.937Z,11.50
2024-05-09T22:05:41.485Z,11.50
2024-05-09T22:08:08.470Z,11.40
2024-05-09T22:10:38.031Z,11.40
2024-05-09T22:13:06.675Z,11.40
2024-05-09T22:15:39.918Z,11.40
2024-05-09T22:18:09.303Z,11.40
2024-05-09T22:20:43.724Z,11.40
2024-05-09T22:23:12.055Z,11.30
2024-05-09T22:25:39.952Z,11.30
2024-05-09T22:28:08.283Z,11.20
2024-05-09T22:30:38.679Z,11.20
2024-05-09T22:33:08.960Z,11.20
2024-05-09T22:35:37.238Z,11.20
2024-05-09T22:38:04.272Z,11.20
2024-05-09T22:40:41.933Z,11.20
2024-05-09T22:43:23.325Z,11.20
2024-05-09T22:45:55.608Z,11.20
2024-05-09T22:48:24.262Z,11.10
2024-05-09T22:50:51.923Z,11.10
2024-05-09T22:53:21.852Z,11.00
2024-05-09T22:55:48.756Z,11.00
2024-05-09T22:58:15.856Z,11.00
2024-05-09T23:00:45.229Z,11.00
2024-05-09T23:03:13.972Z,10.90
2024-05-09T23:05:40.820Z,10.90
2024-05-09T23:08:08.867Z,10.80
2024-05-09T23:10:37.707Z,10.80
2024-05-09T23:13:07.741Z,10.80
2024-05-09T23:15:37.980Z,10.80
2024-05-09T23:18:05.829Z,10.70
2024-05-09T23:20:37.779Z,10.70
2024-05-09T23:23:07.931Z,10.60
2024-05-09T23:25:35.263Z,10.60
2024-05-09T23:28:02.735Z,10.60
2024-05-09T23:30:37.322Z,10.50
2024-05-09T23:33:10.481Z,10.50
2024-05-09T23:35:38.312Z,10.50
2024-05-09T23:38:05.308Z,10.40
2024-05-09T23:43:03.021Z,10.30
2024-05-09T23:45:29.950Z,10.30
2024-05-09T23:47:56.895Z,10.30
2024-05-09T23:50:31.064Z,10.20
2024-05-09T23:53:03.407Z,10.30
2024-05-09T23:55:31.317Z,10.20
2024-05-09T23:57:58.550Z,10.20
